sensor_id;sensor_type;location;lat;lon;timestamp;pressure;altitude;pressure_sealevel;temperature;humidity
19553;BME280;9420;50.876;7.012;2023-02-14T00:02:17;103079.88;;;11.88;99.96
19553;BME280;9420;50.876;7.012;2023-02-14T00:04:44;103070.22;;;11.99;98.85
19553;BME280;9420;50.876;7.012;2023-02-14T00:07:13;103075.53;;;12.02;97.86
19553;BME280;9420;50.876;7.012;2023-02-14T00:09:40;103075.53;;;12.02;98.36
19553;BME280;9420;50.876;7.012;2023-02-14T00:12:07;103079.03;;;12.07;97.70
19553;BME280;9420;50.876;7.012;2023-02-14T00:14:36;103084.31;;;12.01;98.13
19553;BME280;9420;50.876;7.012;2023-02-14T00:17:21;103083.50;;;12.19;97.55
19553;BME280;9420;50.876;7.012;2023-02-14T00:19:48;103084.31;;;12.01;98.92
19553;BME280;9420;50.876;7.012;2023-02-14T00:22:15;103082.53;;;11.88;99.39
19553;BME280;9420;50.876;7.012;2023-02-14T00:24:42;103090.47;;;11.98;99.34
19553;BME280;9420;50.876;7.012;2023-02-14T00:27:09;103093.09;;;11.91;99.57
19553;BME280;9420;50.876;7.012;2023-02-14T00:29:38;103085.19;;;12.03;99.93
19553;BME280;9420;50.876;7.012;2023-02-14T00:32:05;103077.28;;;12.21;99.97
19553;BME280;9420;50.876;7.012;2023-02-14T00:34:32;103073.78;;;12.34;99.72
19553;BME280;9420;50.876;7.012;2023-02-14T00:37:01;103067.66;;;12.41;99.66
19553;BME280;9420;50.876;7.012;2023-02-14T00:39:29;103060.59;;;12.49;99.91
19553;BME280;9420;50.876;7.012;2023-02-14T00:41:56;103066.72;;;12.69;99.56
19553;BME280;9420;50.876;7.012;2023-02-14T00:44:23;103059.72;;;12.47;99.50
19553;BME280;9420;50.876;7.012;2023-02-14T00:46:52;103053.53;;;12.71;99.62
19553;BME280;9420;50.876;7.012;2023-02-14T00:49:19;103054.44;;;12.56;99.79
19553;BME280;9420;50.876;7.012;2023-02-14T00:51:46;103055.25;;;12.89;98.34
19553;BME280;9420;50.876;7.012;2023-02-14T00:54:13;103057.91;;;12.89;97.50
19553;BME280;9420;50.876;7.012;2023-02-14T00:56:41;103055.25;;;12.92;97.79
19553;BME280;9420;50.876;7.012;2023-02-14T00:59:08;103054.41;;;12.38;100.00
19553;BME280;9420;50.876;7.012;2023-02-14T01:01:35;103048.22;;;12.85;98.37
19553;BME280;9420;50.876;7.012;2023-02-14T01:04:06;103043.81;;;12.71;97.89
19553;BME280;9420;50.876;7.012;2023-02-14T01:06:36;103044.72;;;12.64;97.64
19553;BME280;9420;50.876;7.012;2023-02-14T01:09:04;103048.28;;;12.54;98.10
19553;BME280;9420;50.876;7.012;2023-02-14T01:11:31;103040.31;;;12.66;96.92
19553;BME280;9420;50.876;7.012;2023-02-14T01:13:59;103040.25;;;12.86;96.13
19553;BME280;9420;50.876;7.012;2023-02-14T01:16:31;103039.47;;;12.63;97.58
19553;BME280;9420;50.876;7.012;2023-02-14T01:18:59;103048.25;;;12.32;98.73
19553;BME280;9420;50.876;7.012;2023-02-14T01:21:31;103046.50;;;12.16;100.00
19553;BME280;9420;50.876;7.012;2023-02-14T01:24:03;103035.94;;;12.47;100.00
19553;BME280;9420;50.876;7.012;2023-02-14T01:26:30;103040.34;;;12.51;100.00
19553;BME280;9420;50.876;7.012;2023-02-14T01:28:57;103045.63;;;12.39;100.00
19553;BME280;9420;50.876;7.012;2023-02-14T01:31:27;103039.44;;;12.69;99.56
19553;BME280;9420;50.876;7.012;2023-02-14T01:33:56;103041.19;;;12.61;98.83
19553;BME280;9420;50.876;7.012;2023-02-14T01:36:28;103042.06;;;12.86;97.70
19553;BME280;9420;50.876;7.012;2023-02-14T01:38:58;103056.19;;;12.48;99.97
19553;BME280;9420;50.876;7.012;2023-02-14T01:41:29;103038.53;;;12.79;97.73
19553;BME280;9420;50.876;7.012;2023-02-14T01:44:00;103042.03;;;12.87;96.96
19553;BME280;9420;50.876;7.012;2023-02-14T01:46:31;103036.78;;;12.67;96.95
19553;BME280;9420;50.876;7.012;2023-02-14T01:49:02;103039.47;;;12.52;98.09
19553;BME280;9420;50.876;7.012;2023-02-14T01:51:37;103043.88;;;12.50;98.29
19553;BME280;9420;50.876;7.012;2023-02-14T01:54:08;103027.97;;;12.74;97.06
19553;BME280;9420;50.876;7.012;2023-02-14T01:56:43;103038.56;;;12.77;96.12
19553;BME280;9420;50.876;7.012;2023-02-14T01:59:17;103036.78;;;12.73;97.20
19553;BME280;9420;50.876;7.012;2023-02-14T02:01:51;103029.75;;;12.36;98.43
19553;BME280;9420;50.876;7.012;2023-02-14T02:04:23;103036.81;;;12.37;98.59
19553;BME280;9420;50.876;7.012;2023-02-14T02:06:57;103022.72;;;12.56;98.26
19553;BME280;9420;50.876;7.012;2023-02-14T02:09:32;103025.38;;;12.47;97.40
19553;BME280;9420;50.876;7.012;2023-02-14T02:12:02;103041.19;;;12.11;99.77
19553;BME280;9420;50.876;7.012;2023-02-14T02:14:30;103032.41;;;12.44;98.67
19553;BME280;9420;50.876;7.012;2023-02-14T02:17:23;103036.81;;;12.31;99.71
19553;BME280;9420;50.876;7.012;2023-02-14T02:20:41;103034.16;;;12.24;100.00
19553;BME280;9420;50.876;7.012;2023-02-14T02:24:01;103030.63;;;12.44;97.55
19553;BME280;9420;50.876;7.012;2023-02-14T02:27:13;103022.72;;;12.32;99.34
19553;BME280;9420;50.876;7.012;2023-02-14T02:30:42;103015.66;;;12.46;97.67
19553;BME280;9420;50.876;7.012;2023-02-14T02:34:08;103017.47;;;12.29;98.47
19553;BME280;9420;50.876;7.012;2023-02-14T02:37:05;103018.28;;;11.92;100.00
19553;BME280;9420;50.876;7.012;2023-02-14T02:39:57;103015.66;;;12.13;100.00
19553;BME280;9420;50.876;7.012;2023-02-14T02:42:37;103014.78;;;12.17;100.00
19553;BME280;9420;50.876;7.012;2023-02-14T02:45:19;103004.22;;;11.98;100.00
19553;BME280;9420;50.876;7.012;2023-02-14T02:47:56;103006.88;;;11.85;100.00
19553;BME280;9420;50.876;7.012;2023-02-14T02:50:34;103000.69;;;11.85;100.00
19553;BME280;9420;50.876;7.012;2023-02-14T02:53:30;103004.22;;;11.81;100.00
19553;BME280;9420;50.876;7.012;2023-02-14T02:56:03;103003.34;;;11.91;100.00
19553;BME280;9420;50.876;7.012;2023-02-14T02:58:54;103010.38;;;11.83;100.00
19553;BME280;9420;50.876;7.012;2023-02-14T03:01:30;103019.16;;;11.88;100.00
19553;BME280;9420;50.876;7.012;2023-02-14T03:04:03;103014.78;;;12.01;100.00
19553;BME280;9420;50.876;7.012;2023-02-14T03:06:51;103017.44;;;12.02;100.00
19553;BME280;9420;50.876;7.012;2023-02-14T03:09:52;103016.56;;;12.02;100.00
19553;BME280;9420;50.876;7.012;2023-02-14T03:15:59;103027.09;;;11.98;100.00
19553;BME280;9420;50.876;7.012;2023-02-14T03:18:54;103023.59;;;12.18;99.07
19553;BME280;9420;50.876;7.012;2023-02-14T03:21:30;103022.72;;;12.20;98.55
19553;BME280;9420;50.876;7.012;2023-02-14T03:24:08;103021.81;;;12.05;98.38
19553;BME280;9420;50.876;7.012;2023-02-14T03:26:48;103024.44;;;11.76;99.03
19553;BME280;9420;50.876;7.012;2023-02-14T03:29:29;103022.69;;;11.90;100.00
19553;BME280;9420;50.876;7.012;2023-02-14T03:32:03;103029.72;;;11.94;100.00
19553;BME280;9420;50.876;7.012;2023-02-14T03:34:45;103026.22;;;11.89;100.00
19553;BME280;9420;50.876;7.012;2023-02-14T03:37:20;103020.94;;;11.77;100.00
19553;BME280;9420;50.876;7.012;2023-02-14T03:39:58;103031.31;;;11.44;100.00
19553;BME280;9420;50.876;7.012;2023-02-14T03:42:35;103031.47;;;11.86;100.00
19553;BME280;9420;50.876;7.012;2023-02-14T03:45:09;103028.84;;;11.90;100.00
19553;BME280;9420;50.876;7.012;2023-02-14T03:47:42;103027.00;;;11.61;100.00
19553;BME280;9420;50.876;7.012;2023-02-14T03:50:16;103027.88;;;11.60;100.00
19553;BME280;9420;50.876;7.012;2023-02-14T03:52:45;103031.47;;;11.80;100.00
19553;BME280;9420;50.876;7.012;2023-02-14T03:55:20;103030.44;;;11.42;100.00
19553;BME280;9420;50.876;7.012;2023-02-14T03:58:00;103027.94;;;11.73;100.00
19553;BME280;9420;50.876;7.012;2023-02-14T04:00:33;103026.19;;;11.74;100.00
19553;BME280;9420;50.876;7.012;2023-02-14T04:03:08;103024.34;;;11.52;100.00
19553;BME280;9420;50.876;7.012;2023-02-14T04:05:38;103027.00;;;11.59;100.00
19553;BME280;9420;50.876;7.012;2023-02-14T04:08:10;103023.56;;;11.81;100.00
19553;BME280;9420;50.876;7.012;2023-02-14T04:10:37;103019.19;;;11.91;100.00
19553;BME280;9420;50.876;7.012;2023-02-14T04:13:09;103015.69;;;11.98;100.00
19553;BME280;9420;50.876;7.012;2023-02-14T04:15:36;103013.88;;;11.70;100.00
19553;BME280;9420;50.876;7.012;2023-02-14T04:18:03;103020.81;;;11.59;100.00
19553;BME280;9420;50.876;7.012;2023-02-14T04:20:48;103017.41;;;11.84;100.00
19553;BME280;9420;50.876;7.012;2023-02-14T04:23:15;103025.22;;;11.63;100.00
19553;BME280;9420;50.876;7.012;2023-02-14T04:25:42;103013.03;;;11.98;100.00
19553;BME280;9420;50.876;7.012;2023-02-14T04:28:12;103021.72;;;11.52;100.00
19553;BME280;9420;50.876;7.012;2023-02-14T04:30:39;103015.66;;;11.86;100.00
19553;BME280;9420;50.876;7.012;2023-02-14T04:33:06;103018.19;;;11.51;100.00
19553;BME280;9420;50.876;7.012;2023-02-14T04:35:36;103011.19;;;11.64;100.00
19553;BME280;9420;50.876;7.012;2023-02-14T04:38:03;103001.47;;;11.63;100.00
19553;BME280;9420;50.876;7.012;2023-02-14T04:40:30;103013.81;;;11.59;100.00
19553;BME280;9420;50.876;7.012;2023-02-14T04:42:58;103012.13;;;11.78;100.00
19553;BME280;9420;50.876;7.012;2023-02-14T04:45:27;103011.13;;;11.41;100.00
19553;BME280;9420;50.876;7.012;2023-02-14T04:47:57;103016.41;;;11.47;100.00
19553;BME280;9420;50.876;7.012;2023-02-14T04:50:25;103019.03;;;11.46;100.00
19553;BME280;9420;50.876;7.012;2023-02-14T04:52:52;103013.72;;;11.40;100.00
19553;BME280;9420;50.876;7.012;2023-02-14T04:55:19;103014.63;;;11.40;100.00
19553;BME280;9420;50.876;7.012;2023-02-14T04:57:47;103004.97;;;11.45;100.00
19553;BME280;9420;50.876;7.012;2023-02-14T05:00:15;102998.75;;;11.30;100.00
19553;BME280;9420;50.876;7.012;2023-02-14T05:02:45;103001.44;;;11.45;100.00
19553;BME280;9420;50.876;7.012;2023-02-14T05:05:13;102994.44;;;11.50;100.00
19553;BME280;9420;50.876;7.012;2023-02-14T05:07:40;102995.97;;;10.96;100.00
19553;BME280;9420;50.876;7.012;2023-02-14T05:10:13;102986.53;;;11.51;100.00
19553;BME280;9420;50.876;7.012;2023-02-14T05:12:40;102995.81;;;10.71;100.00
19553;BME280;9420;50.876;7.012;2023-02-14T05:15:10;102993.97;;;10.56;100.00
19553;BME280;9420;50.876;7.012;2023-02-14T05:17:37;102988.97;;;10.95;100.00
19553;BME280;9420;50.876;7.012;2023-02-14T05:20:08;102992.59;;;11.25;100.00
19553;BME280;9420;50.876;7.012;2023-02-14T05:22:35;102994.25;;;11.01;100.00
19553;BME280;9420;50.876;7.012;2023-02-14T05:25:03;102979.34;;;11.08;100.00
19553;BME280;9420;50.876;7.012;2023-02-14T05:27:31;102985.41;;;10.93;100.00
19553;BME280;9420;50.876;7.012;2023-02-14T05:30:00;102980.06;;;10.81;100.00
19553;BME280;9420;50.876;7.012;2023-02-14T05:32:27;102983.72;;;11.07;100.00
19553;BME280;9420;50.876;7.012;2023-02-14T05:34:55;102985.38;;;10.87;100.00
19553;BME280;9420;50.876;7.012;2023-02-14T05:37:23;102983.63;;;10.88;100.00
19553;BME280;9420;50.876;7.012;2023-02-14T05:39:50;102980.91;;;10.73;100.00
19553;BME280;9420;50.876;7.012;2023-02-14T05:42:18;102981.13;;;11.13;100.00
19553;BME280;9420;50.876;7.012;2023-02-14T05:44:45;102983.66;;;10.92;100.00
19553;BME280;9420;50.876;7.012;2023-02-14T05:47:13;102977.56;;;10.99;100.00
19553;BME280;9420;50.876;7.012;2023-02-14T05:49:40;102981.03;;;10.97;100.00
19553;BME280;9420;50.876;7.012;2023-02-14T05:52:07;102986.22;;;10.80;100.00
19553;BME280;9420;50.876;7.012;2023-02-14T05:54:37;102977.16;;;10.34;100.00
19553;BME280;9420;50.876;7.012;2023-02-14T05:57:04;102981.78;;;10.72;100.00
19553;BME280;9420;50.876;7.012;2023-02-14T05:59:32;102990.53;;;10.69;100.00
19553;BME280;9420;50.876;7.012;2023-02-14T06:01:59;102986.28;;;10.91;100.00
19553;BME280;9420;50.876;7.012;2023-02-14T06:04:26;102990.56;;;10.68;100.00
19553;BME280;9420;50.876;7.012;2023-02-14T06:06:54;102994.09;;;10.77;100.00
19553;BME280;9420;50.876;7.012;2023-02-14T06:09:21;102995.91;;;10.84;100.00
19553;BME280;9420;50.876;7.012;2023-02-14T06:11:50;102993.97;;;10.56;100.00
19553;BME280;9420;50.876;7.012;2023-02-14T06:14:18;102995.88;;;10.81;100.00
19553;BME280;9420;50.876;7.012;2023-02-14T06:19:15;102995.06;;;10.90;100.00
19553;BME280;9420;50.876;7.012;2023-02-14T06:21:42;103002.97;;;10.91;100.00
19553;BME280;9420;50.876;7.012;2023-02-14T06:24:09;103006.47;;;10.84;100.00
19553;BME280;9420;50.876;7.012;2023-02-14T06:26:36;102999.53;;;11.01;100.00
19553;BME280;9420;50.876;7.012;2023-02-14T06:29:05;103001.13;;;10.75;100.00
19553;BME280;9420;50.876;7.012;2023-02-14T06:31:32;102999.53;;;11.06;100.00
19553;BME280;9420;50.876;7.012;2023-02-14T06:33:59;102995.78;;;10.63;100.00
19553;BME280;9420;50.876;7.012;2023-02-14T06:36:26;103001.22;;;10.90;100.00
19553;BME280;9420;50.876;7.012;2023-02-14T06:38:53;103000.28;;;10.76;100.00
19553;BME280;9420;50.876;7.012;2023-02-14T06:41:20;103002.88;;;10.73;100.00
19553;BME280;9420;50.876;7.012;2023-02-14T06:43:50;103002.81;;;10.64;100.00
19553;BME280;9420;50.876;7.012;2023-02-14T06:46:18;103008.16;;;10.76;100.00
19553;BME280;9420;50.876;7.012;2023-02-14T06:48:45;103007.19;;;10.62;100.00
19553;BME280;9420;50.876;7.012;2023-02-14T06:51:13;103009.03;;;10.72;100.00
19553;BME280;9420;50.876;7.012;2023-02-14T06:53:40;103010.88;;;10.90;100.00
19553;BME280;9420;50.876;7.012;2023-02-14T06:56:07;103007.19;;;10.58;100.00
19553;BME280;9420;50.876;7.012;2023-02-14T06:58:34;103009.75;;;10.50;100.00
19553;BME280;9420;50.876;7.012;2023-02-14T07:01:01;103010.69;;;10.61;100.00
19553;BME280;9420;50.876;7.012;2023-02-14T07:03:30;103012.44;;;10.59;100.00
19553;BME280;9420;50.876;7.012;2023-02-14T07:06:00;103006.28;;;10.57;100.00
19553;BME280;9420;50.876;7.012;2023-02-14T07:08:27;103009.78;;;10.53;100.00
19553;BME280;9420;50.876;7.012;2023-02-14T07:10:55;103016.16;;;10.96;100.00
19553;BME280;9420;50.876;7.012;2023-02-14T07:13:22;103011.91;;;11.17;100.00
19553;BME280;9420;50.876;7.012;2023-02-14T07:15:49;103008.38;;;11.15;100.00
19553;BME280;9420;50.876;7.012;2023-02-14T07:18:16;103016.97;;;10.81;100.00
19553;BME280;9420;50.876;7.012;2023-02-14T07:20:44;103009.19;;;11.01;100.00
19553;BME280;9420;50.876;7.012;2023-02-14T07:23:12;103009.31;;;11.27;100.00
19553;BME280;9420;50.876;7.012;2023-02-14T07:25:39;103008.38;;;11.15;100.00
19553;BME280;9420;50.876;7.012;2023-02-14T07:28:06;103003.81;;;10.83;100.00
19553;BME280;9420;50.876;7.012;2023-02-14T07:30:33;103005.81;;;11.38;100.00
19553;BME280;9420;50.876;7.012;2023-02-14T07:33:00;103006.69;;;11.33;100.00
19553;BME280;9420;50.876;7.012;2023-02-14T07:35:27;102999.75;;;11.62;100.00
19553;BME280;9420;50.876;7.012;2023-02-14T07:37:56;102997.97;;;11.64;100.00
19553;BME280;9420;50.876;7.012;2023-02-14T07:40:23;102995.38;;;11.77;100.00
19553;BME280;9420;50.876;7.012;2023-02-14T07:42:54;102997.97;;;11.61;100.00
19553;BME280;9420;50.876;7.012;2023-02-14T07:45:23;103003.22;;;11.49;100.00
19553;BME280;9420;50.876;7.012;2023-02-14T07:47:53;103004.97;;;11.53;100.00
19553;BME280;9420;50.876;7.012;2023-02-14T07:50:21;103011.16;;;11.65;100.00
19553;BME280;9420;50.876;7.012;2023-02-14T07:52:49;103003.19;;;11.38;100.00
19553;BME280;9420;50.876;7.012;2023-02-14T07:55:18;103001.50;;;11.61;100.00
19553;BME280;9420;50.876;7.012;2023-02-14T07:57:47;103011.16;;;11.58;100.00
19553;BME280;9420;50.876;7.012;2023-02-14T08:00:15;103001.47;;;11.63;100.00
19553;BME280;9420;50.876;7.012;2023-02-14T08:02:42;103002.34;;;11.51;100.00
19553;BME280;9420;50.876;7.012;2023-02-14T08:05:10;103011.94;;;11.30;100.00
19553;BME280;9420;50.876;7.012;2023-02-14T08:07:37;102998.03;;;11.68;100.00
19553;BME280;9420;50.876;7.012;2023-02-14T08:10:06;103008.59;;;11.76;100.00
19553;BME280;9420;50.876;7.012;2023-02-14T08:12:34;102997.19;;;12.10;100.00
19553;BME280;9420;50.876;7.012;2023-02-14T08:15:19;102999.84;;;12.16;100.00
19553;BME280;9420;50.876;7.012;2023-02-14T08:18:03;102997.16;;;11.84;100.00
19553;BME280;9420;50.876;7.012;2023-02-14T08:20:30;103006.88;;;12.17;100.00
19553;BME280;9420;50.876;7.012;2023-02-14T08:22:57;103003.34;;;12.29;100.00
19553;BME280;9420;50.876;7.012;2023-02-14T08:25:25;103007.75;;;12.09;100.00
19553;BME280;9420;50.876;7.012;2023-02-14T08:27:53;103006.88;;;12.38;100.00
19553;BME280;9420;50.876;7.012;2023-02-14T08:30:21;103008.63;;;12.09;100.00
19553;BME280;9420;50.876;7.012;2023-02-14T08:32:48;103004.22;;;12.44;100.00
19553;BME280;9420;50.876;7.012;2023-02-14T08:35:16;103011.28;;;12.39;100.00
19553;BME280;9420;50.876;7.012;2023-02-14T08:37:43;103003.31;;;12.63;100.00
19553;BME280;9420;50.876;7.012;2023-02-14T08:40:11;102995.38;;;12.75;100.00
19553;BME280;9420;50.876;7.012;2023-02-14T08:42:38;103005.03;;;12.92;100.00
19553;BME280;9420;50.876;7.012;2023-02-14T08:45:08;103005.94;;;12.72;100.00
19553;BME280;9420;50.876;7.012;2023-02-14T08:47:35;103005.97;;;12.60;100.00
19553;BME280;9420;50.876;7.012;2023-02-14T08:50:05;103005.94;;;12.75;100.00
19553;BME280;9420;50.876;7.012;2023-02-14T08:52:32;102998.84;;;12.87;100.00
19553;BME280;9420;50.876;7.012;2023-02-14T08:54:59;103011.25;;;12.65;100.00
19553;BME280;9420;50.876;7.012;2023-02-14T08:57:27;103003.22;;;12.97;100.00
19553;BME280;9420;50.876;7.012;2023-02-14T08:59:54;103003.31;;;12.63;100.00
19553;BME280;9420;50.876;7.012;2023-02-14T09:02:22;102998.94;;;12.53;100.00
19553;BME280;9420;50.876;7.012;2023-02-14T09:04:49;103006.75;;;13.11;100.00
19553;BME280;9420;50.876;7.012;2023-02-14T09:07:16;103003.22;;;13.00;100.00
19553;BME280;9420;50.876;7.012;2023-02-14T09:09:44;103001.44;;;13.17;100.00
19553;BME280;9420;50.876;7.012;2023-02-14T09:12:11;103008.50;;;13.12;99.42
19553;BME280;9420;50.876;7.012;2023-02-14T09:14:40;103003.22;;;13.12;100.00
19553;BME280;9420;50.876;7.012;2023-02-14T09:17:09;102993.41;;;13.35;99.02
19553;BME280;9420;50.876;7.012;2023-02-14T09:19:37;102997.88;;;13.18;99.48
19553;BME280;9420;50.876;7.012;2023-02-14T09:22:08;102997.81;;;13.33;99.51
19553;BME280;9420;50.876;7.012;2023-02-14T09:24:37;102999.38;;;13.73;97.02
19553;BME280;9420;50.876;7.012;2023-02-14T09:27:06;102989.56;;;13.86;97.14
19553;BME280;9420;50.876;7.012;2023-02-14T09:29:33;102988.69;;;13.85;96.87
19553;BME280;9420;50.876;7.012;2023-02-14T09:32:01;102989.41;;;14.07;95.70
19553;BME280;9420;50.876;7.012;2023-02-14T09:34:32;102984.91;;;14.19;94.64
19553;BME280;9420;50.876;7.012;2023-02-14T09:37:01;102977.53;;;13.33;98.08
19553;BME280;9420;50.876;7.012;2023-02-14T09:39:45;102980.78;;;13.82;96.37
19553;BME280;9420;50.876;7.012;2023-02-14T09:42:36;102973.59;;;13.96;94.45
19553;BME280;9420;50.876;7.012;2023-02-14T09:45:10;102981.91;;;13.39;97.98
19553;BME280;9420;50.876;7.012;2023-02-14T09:47:45;102963.75;;;14.13;96.30
19553;BME280;9420;50.876;7.012;2023-02-14T09:50:19;102970.72;;;14.23;94.48
19553;BME280;9420;50.876;7.012;2023-02-14T09:52:53;102970.66;;;14.34;95.85
19553;BME280;9420;50.876;7.012;2023-02-14T09:55:30;102968.38;;;14.83;91.96
19553;BME280;9420;50.876;7.012;2023-02-14T09:58:07;102969.50;;;14.64;93.36
19553;BME280;9420;50.876;7.012;2023-02-14T10:00:41;102964.41;;;14.40;94.20
19553;BME280;9420;50.876;7.012;2023-02-14T10:03:40;102959.25;;;14.21;94.08
19553;BME280;9420;50.876;7.012;2023-02-14T10:06:26;102971.53;;;14.33;94.64
19553;BME280;9420;50.876;7.012;2023-02-14T10:09:13;102974.47;;;13.98;94.89
19553;BME280;9420;50.876;7.012;2023-02-14T10:11:45;102969.41;;;14.70;92.94
19553;BME280;9420;50.876;7.012;2023-02-14T10:14:17;102964.28;;;14.53;93.49
19553;BME280;9420;50.876;7.012;2023-02-14T10:16:50;102966.25;;;14.33;94.35
19553;BME280;9420;50.876;7.012;2023-02-14T10:19:25;102961.81;;;14.37;94.56
19553;BME280;9420;50.876;7.012;2023-02-14T10:21:57;102965.28;;;15.21;91.37
19553;BME280;9420;50.876;7.012;2023-02-14T10:24:34;102954.38;;;14.69;91.73
19553;BME280;9420;50.876;7.012;2023-02-14T10:27:12;102962.59;;;15.19;90.83
19553;BME280;9420;50.876;7.012;2023-02-14T10:29:44;102944.31;;;15.63;88.64
19553;BME280;9420;50.876;7.012;2023-02-14T10:32:14;102950.47;;;15.65;88.71
19553;BME280;9420;50.876;7.012;2023-02-14T10:34:48;102940.25;;;15.96;86.34
19553;BME280;9420;50.876;7.012;2023-02-14T10:37:34;102939.78;;;15.06;87.52
19553;BME280;9420;50.876;7.012;2023-02-14T10:40:37;102936.13;;;15.16;87.82
19553;BME280;9420;50.876;7.012;2023-02-14T10:43:22;102934.69;;;15.58;88.68
19553;BME280;9420;50.876;7.012;2023-02-14T10:46:05;102930.59;;;15.31;87.50
19553;BME280;9420;50.876;7.012;2023-02-14T10:48:50;102920.72;;;15.99;84.73
19553;BME280;9420;50.876;7.012;2023-02-14T10:51:29;102919.28;;;16.77;81.57
19553;BME280;9420;50.876;7.012;2023-02-14T10:54:15;102919.81;;;17.32;80.16
19553;BME280;9420;50.876;7.012;2023-02-14T10:56:53;102917.88;;;17.40;75.04
19553;BME280;9420;50.876;7.012;2023-02-14T10:59:26;102911.59;;;17.03;77.10
19553;BME280;9420;50.876;7.012;2023-02-14T11:01:59;102907.06;;;16.67;78.83
19553;BME280;9420;50.876;7.012;2023-02-14T11:04:29;102905.53;;;17.36;76.16
19553;BME280;9420;50.876;7.012;2023-02-14T11:06:57;102914.13;;;17.11;76.07
19553;BME280;9420;50.876;7.012;2023-02-14T11:09:24;102900.13;;;17.39;74.32
19553;BME280;9420;50.876;7.012;2023-02-14T11:11:55;102891.31;;;17.76;72.58
19553;BME280;9420;50.876;7.012;2023-02-14T11:14:27;102889.28;;;17.85;71.86
19553;BME280;9420;50.876;7.012;2023-02-14T11:16:56;102884.75;;;17.15;72.09
19553;BME280;9420;50.876;7.012;2023-02-14T11:19:27;102884.00;;;17.45;73.67
19553;BME280;9420;50.876;7.012;2023-02-14T11:21:56;102883.91;;;17.52;73.00
19553;BME280;9420;50.876;7.012;2023-02-14T11:24:30;102881.50;;;17.78;71.57
19553;BME280;9420;50.876;7.012;2023-02-14T11:27:02;102876.38;;;17.69;70.92
19553;BME280;9420;50.876;7.012;2023-02-14T11:29:35;102870.53;;;18.54;70.65
19553;BME280;9420;50.876;7.012;2023-02-14T11:32:11;102869.19;;;18.99;66.32
19553;BME280;9420;50.876;7.012;2023-02-14T11:34:44;102866.34;;;18.76;64.09
19553;BME280;9420;50.876;7.012;2023-02-14T11:37:24;102860.84;;;19.10;64.90
19553;BME280;9420;50.876;7.012;2023-02-14T11:39:54;102846.47;;;19.42;63.50
19553;BME280;9420;50.876;7.012;2023-02-14T11:42:40;102853.38;;;19.49;62.98
19553;BME280;9420;50.876;7.012;2023-02-14T11:45:28;102858.47;;;19.83;61.00
19553;BME280;9420;50.876;7.012;2023-02-14T11:48:17;102844.63;;;19.96;59.59
19553;BME280;9420;50.876;7.012;2023-02-14T11:50:55;102840.44;;;20.38;59.68
19553;BME280;9420;50.876;7.012;2023-02-14T11:53:25;102835.47;;;20.03;60.16
19553;BME280;9420;50.876;7.012;2023-02-14T11:55:56;102831.03;;;20.75;58.71
19553;BME280;9420;50.876;7.012;2023-02-14T11:58:34;102821.34;;;21.17;56.25
19553;BME280;9420;50.876;7.012;2023-02-14T12:01:03;102824.16;;;21.77;52.49
19553;BME280;9420;50.876;7.012;2023-02-14T12:03:38;102807.34;;;22.53;49.34
19553;BME280;9420;50.876;7.012;2023-02-14T12:06:10;102805.50;;;23.46;48.12
19553;BME280;9420;50.876;7.012;2023-02-14T12:08:37;102800.19;;;24.79;45.06
19553;BME280;9420;50.876;7.012;2023-02-14T12:11:19;102783.72;;;26.75;40.40
19553;BME280;9420;50.876;7.012;2023-02-14T12:13:53;102784.59;;;28.20;36.64
19553;BME280;9420;50.876;7.012;2023-02-14T12:16:28;102781.13;;;28.18;35.72
19553;BME280;9420;50.876;7.012;2023-02-14T12:19:04;102773.75;;;29.18;33.92
19553;BME280;9420;50.876;7.012;2023-02-14T12:21:43;102758.91;;;29.69;33.53
19553;BME280;9420;50.876;7.012;2023-02-14T12:24:26;102757.78;;;30.07;31.84
19553;BME280;9420;50.876;7.012;2023-02-14T12:27:05;102750.34;;;29.87;31.67
19553;BME280;9420;50.876;7.012;2023-02-14T12:29:44;102738.34;;;30.78;30.57
19553;BME280;9420;50.876;7.012;2023-02-14T12:32:20;102739.25;;;30.23;31.56
19553;BME280;9420;50.876;7.012;2023-02-14T12:34:50;102729.72;;;31.68;29.35
19553;BME280;9420;50.876;7.012;2023-02-14T12:37:30;102733.50;;;31.03;29.24
19553;BME280;9420;50.876;7.012;2023-02-14T12:40:13;102735.44;;;31.12;29.26
19553;BME280;9420;50.876;7.012;2023-02-14T12:43:17;102721.66;;;32.77;27.76
19553;BME280;9420;50.876;7.012;2023-02-14T12:49:42;102713.91;;;32.03;27.48
19553;BME280;9420;50.876;7.012;2023-02-14T12:52:32;102716.31;;;31.96;27.65
19553;BME280;9420;50.876;7.012;2023-02-14T12:55:33;102715.72;;;32.23;27.76
19553;BME280;9420;50.876;7.012;2023-02-14T12:58:21;102712.22;;;31.91;28.05
19553;BME280;9420;50.876;7.012;2023-02-14T13:01:11;102710.66;;;31.47;28.00
19553;BME280;9420;50.876;7.012;2023-02-14T13:04:18;102695.84;;;32.11;27.05
19553;BME280;9420;50.876;7.012;2023-02-14T13:06:53;102695.69;;;30.78;27.92
19553;BME280;9420;50.876;7.012;2023-02-14T13:09:38;102689.38;;;32.03;27.18
19553;BME280;9420;50.876;7.012;2023-02-14T13:12:27;102685.91;;;32.90;26.31
19553;BME280;9420;50.876;7.012;2023-02-14T13:15:13;102676.56;;;33.31;25.97
19553;BME280;9420;50.876;7.012;2023-02-14T13:17:51;102679.44;;;32.81;25.88
19553;BME280;9420;50.876;7.012;2023-02-14T13:20:40;102669.63;;;33.46;25.54
19553;BME280;9420;50.876;7.012;2023-02-14T13:23:14;102677.72;;;32.90;25.49
19553;BME280;9420;50.876;7.012;2023-02-14T13:25:46;102662.91;;;32.93;25.88
19553;BME280;9420;50.876;7.012;2023-02-14T13:28:17;102658.94;;;31.98;27.05
19553;BME280;9420;50.876;7.012;2023-02-14T13:30:45;102662.63;;;32.96;25.98
19553;BME280;9420;50.876;7.012;2023-02-14T13:33:27;102655.31;;;33.06;25.75
19553;BME280;9420;50.876;7.012;2023-02-14T13:35:59;102649.88;;;32.37;26.77
19553;BME280;9420;50.876;7.012;2023-02-14T13:38:28;102648.59;;;32.41;26.61